Time;durP1;ratioP1;P1;durP2;ratioP2;P2;SDS_P1;SDS_P2;PMS_P1;PMS_P2;Temp;Humidity;BMP_temperature;BMP_pressure;BME280_temperature;BME280_humidity;BME280_pressure;Samples;Min_cycle;Max_cycle;Signal;HPM_P1;HPM_P2
2023/07/16 00:02:10;;;;;;;14.52;9.20;;;;;;;19.57;100.00;100806.53;4978710;28;20043;-74
2023/07/16 00:04:35;;;;;;;18.75;9.93;;;;;;;19.48;100.00;100809.34;4988537;28;20042;-74
2023/07/16 00:07:04;;;;;;;19.92;10.88;;;;;;;19.48;100.00;100812.03;4983047;28;20473;-73
2023/07/16 00:09:29;;;;;;;18.40;10.30;;;;;;;19.45;100.00;100807.81;4989627;28;20045;-73
2023/07/16 00:11:56;;;;;;;17.38;12.68;;;;;;;19.21;100.00;100808.44;4986323;28;20039;-74
2023/07/16 00:14:21;;;;;;;19.65;12.82;;;;;;;19.29;100.00;100818.47;4986113;28;20889;-74
2023/07/16 00:16:47;;;;;;;19.65;12.73;;;;;;;19.14;100.00;100831.69;4986796;28;20073;-74
2023/07/16 00:19:14;;;;;;;17.05;11.95;;;;;;;19.06;100.00;100820.78;4990020;28;20038;-74
2023/07/16 00:21:40;;;;;;;18.17;10.60;;;;;;;19.17;100.00;100825.09;4982786;28;20900;-73
2023/07/16 00:24:06;;;;;;;14.93;10.35;;;;;;;19.21;100.00;100821.94;4987616;28;20051;-74
2023/07/16 00:26:31;;;;;;;19.85;9.60;;;;;;;19.21;100.00;100830.06;4988101;28;20042;-73
2023/07/16 00:28:57;;;;;;;19.65;9.23;;;;;;;19.27;100.00;100834.00;4980539;28;20137;-74
2023/07/16 00:31:23;;;;;;;15.63;9.60;;;;;;;19.36;100.00;100828.50;4984156;28;20034;-72
2023/07/16 00:33:48;;;;;;;19.90;9.23;;;;;;;19.20;100.00;100822.09;4988334;28;20121;-74
2023/07/16 00:36:14;;;;;;;15.07;9.48;;;;;;;19.28;100.00;100835.72;4989971;28;20484;-73
2023/07/16 00:38:41;;;;;;;15.18;10.68;;;;;;;19.25;100.00;100834.16;4985537;28;20046;-74
2023/07/16 00:41:07;;;;;;;13.32;8.93;;;;;;;19.11;100.00;100848.19;4983597;28;20035;-74
2023/07/16 00:43:32;;;;;;;18.92;10.23;;;;;;;19.25;100.00;100836.84;4985290;28;20054;-74
2023/07/16 00:45:58;;;;;;;15.57;9.88;;;;;;;19.34;100.00;100835.94;4983072;28;20039;-74
2023/07/16 00:48:24;;;;;;;18.52;11.27;;;;;;;19.18;100.00;100843.91;4975213;28;20038;-73
2023/07/16 00:50:52;;;;;;;16.83;11.65;;;;;;;19.21;100.00;100840.88;4982747;28;20038;-74
2023/07/16 00:53:17;;;;;;;23.60;11.90;;;;;;;19.22;100.00;100841.72;4978396;28;20069;-74
2023/07/16 00:55:43;;;;;;;20.15;11.00;;;;;;;19.16;100.00;100840.47;4983047;28;20043;-74
2023/07/16 00:58:09;;;;;;;15.20;10.73;;;;;;;19.05;100.00;100838.00;4979270;28;20778;-74
2023/07/16 01:00:37;;;;;;;14.23;8.75;;;;;;;19.05;100.00;100830.72;4986837;28;20133;-74
2023/07/16 01:03:04;;;;;;;19.20;7.72;;;;;;;18.96;100.00;100825.38;4988728;28;20042;-74
2023/07/16 01:05:41;;;;;;;16.88;7.05;;;;;;;18.88;100.00;100821.59;4981487;28;20471;-74
2023/07/16 01:08:10;;;;;;;14.90;6.53;;;;;;;18.81;100.00;100817.78;4979473;28;20061;-77
2023/07/16 01:10:38;;;;;;;17.00;5.68;;;;;;;19.01;100.00;100806.88;4978653;28;20129;-76
2023/07/16 01:13:04;;;;;;;11.50;5.13;;;;;;;18.87;100.00;100824.44;4985393;28;20047;-73
2023/07/16 01:15:29;;;;;;;11.90;5.20;;;;;;;18.88;100.00;100821.59;4971775;28;20053;-73
2023/07/16 01:17:55;;;;;;;15.95;6.22;;;;;;;18.81;100.00;100828.59;4985265;28;20149;-75
2023/07/16 01:20:21;;;;;;;14.32;5.20;;;;;;;18.83;100.00;100832.03;4984415;28;20035;-75
2023/07/16 01:23:13;;;;;;;16.55;5.60;;;;;;;18.80;100.00;100829.59;4995765;28;20038;-75
2023/07/16 01:26:28;;;;;;;14.93;5.57;;;;;;;18.77;100.00;100823.66;4974501;28;20048;-75
2023/07/16 01:29:18;;;;;;;18.38;6.32;;;;;;;18.36;100.00;100823.94;4977044;28;20077;-74
2023/07/16 01:31:46;;;;;;;15.32;6.55;;;;;;;18.51;100.00;100834.25;4981969;28;20069;-74
2023/07/16 01:34:13;;;;;;;17.38;6.95;;;;;;;18.34;100.00;100828.66;4990974;28;20030;-75
2023/07/16 01:36:39;;;;;;;12.35;6.20;;;;;;;18.18;100.00;100831.13;4991951;28;20033;-75
2023/07/16 01:39:05;;;;;;;13.70;6.07;;;;;;;18.24;100.00;100835.09;4981905;28;20061;-74
2023/07/16 01:41:31;;;;;;;16.55;4.82;;;;;;;18.30;100.00;100831.78;4979806;28;20046;-73
2023/07/16 01:43:57;;;;;;;15.60;5.40;;;;;;;18.29;100.00;100828.25;4972982;28;20057;-75
2023/07/16 01:46:23;;;;;;;15.80;4.72;;;;;;;18.21;100.00;100814.63;4989592;28;20035;-74
2023/07/16 01:48:49;;;;;;;19.00;5.75;;;;;;;18.26;100.00;100823.13;4991046;28;20038;-74
2023/07/16 01:51:14;;;;;;;19.58;5.40;;;;;;;18.22;100.00;100827.13;4980467;28;20034;-74
2023/07/16 01:53:41;;;;;;;10.90;4.85;;;;;;;18.00;100.00;100819.38;4991191;28;20049;-74
2023/07/16 01:56:06;;;;;;;11.88;4.53;;;;;;;17.90;100.00;100814.00;4982697;28;20043;-74
2023/07/16 01:58:32;;;;;;;14.15;5.18;;;;;;;17.90;100.00;100818.56;4988683;28;20057;-74
2023/07/16 02:00:58;;;;;;;9.35;4.90;;;;;;;17.97;100.00;100816.97;5004601;28;20093;-74
2023/07/16 02:03:24;;;;;;;13.23;5.32;;;;;;;18.01;100.00;100818.38;4980955;28;20113;-74
2023/07/16 02:05:49;;;;;;;13.93;4.85;;;;;;;17.82;100.00;100822.84;4977385;28;20138;-74
2023/07/16 02:08:16;;;;;;;14.38;5.22;;;;;;;17.92;100.00;100816.53;5006473;28;20038;-74
2023/07/16 02:10:41;;;;;;;14.75;4.93;;;;;;;17.78;100.00;100821.41;4978884;28;20041;-74
2023/07/16 02:13:10;;;;;;;15.18;4.88;;;;;;;17.84;100.00;100818.13;4993687;28;20086;-74
2023/07/16 02:15:35;;;;;;;15.30;5.22;;;;;;;17.83;100.00;100821.00;5001573;28;20113;-74
2023/07/16 02:18:03;;;;;;;13.48;5.53;;;;;;;17.73;100.00;100818.31;4987664;28;20035;-74
2023/07/16 02:20:28;;;;;;;15.40;4.80;;;;;;;17.65;100.00;100817.28;4978597;28;20046;-74
2023/07/16 02:22:54;;;;;;;15.68;5.25;;;;;;;17.57;100.00;100816.16;4999833;28;20695;-74
2023/07/16 02:25:19;;;;;;;13.25;5.72;;;;;;;17.59;100.00;100826.81;4988474;28;20042;-74
2023/07/16 02:27:47;;;;;;;13.55;5.70;;;;;;;17.63;100.00;100822.81;4989220;28;20030;-75
2023/07/16 02:30:14;;;;;;;11.88;5.10;;;;;;;17.57;100.00;100828.75;4990172;28;20133;-73
2023/07/16 02:32:42;;;;;;;17.23;5.45;;;;;;;17.56;100.00;100822.53;4984192;28;20046;-75
2023/07/16 02:35:08;;;;;;;15.68;5.30;;;;;;;17.65;100.00;100825.38;5003623;28;20034;-75
2023/07/16 02:37:34;;;;;;;15.32;6.05;;;;;;;17.65;100.00;100830.75;4986470;28;20042;-76
2023/07/16 02:40:00;;;;;;;11.35;5.10;;;;;;;17.72;100.00;100832.75;4997712;28;20049;-75
2023/07/16 02:42:26;;;;;;;11.77;4.88;;;;;;;17.70;100.00;100832.03;4989700;28;20141;-74
2023/07/16 02:44:51;;;;;;;13.07;4.90;;;;;;;17.72;100.00;100839.97;5000900;28;20049;-74
2023/07/16 02:47:17;;;;;;;16.67;5.45;;;;;;;17.80;100.00;100845.53;4992333;28;20038;-75
2023/07/16 02:49:42;;;;;;;9.57;4.82;;;;;;;17.83;100.00;100839.88;4984948;28;20116;-74
2023/07/16 02:52:08;;;;;;;14.05;4.82;;;;;;;17.85;100.00;100838.72;4993208;28;20659;-74
2023/07/16 02:54:36;;;;;;;11.43;5.10;;;;;;;17.72;100.00;100842.66;4997260;28;20078;-75
2023/07/16 02:57:02;;;;;;;11.20;5.15;;;;;;;17.64;100.00;100842.56;4987996;28;20034;-74
2023/07/16 02:59:28;;;;;;;16.63;5.93;;;;;;;17.58;100.00;100838.59;4991890;28;20038;-73
2023/07/16 03:01:53;;;;;;;13.25;4.60;;;;;;;17.72;100.00;100838.16;4995674;28;20039;-74
2023/07/16 03:04:20;;;;;;;9.60;4.85;;;;;;;17.51;100.00;100840.13;5012613;28;20069;-75
2023/07/16 03:06:45;;;;;;;14.82;5.55;;;;;;;17.61;100.00;100835.59;4998852;28;20034;-74
2023/07/16 03:09:11;;;;;;;14.00;5.00;;;;;;;17.42;100.00;100849.06;5000649;28;20034;-74
2023/07/16 03:11:37;;;;;;;12.25;5.20;;;;;;;17.45;100.00;100846.94;4995895;28;20513;-74
2023/07/16 03:14:02;;;;;;;18.48;6.15;;;;;;;17.37;100.00;100840.53;4990091;28;20030;-75
2023/07/16 03:16:28;;;;;;;12.40;5.50;;;;;;;17.43;100.00;100848.09;4990464;28;20988;-73
2023/07/16 03:18:53;;;;;;;16.10;5.50;;;;;;;17.34;100.00;100847.09;4994337;28;20046;-75
2023/07/16 03:21:19;;;;;;;14.55;5.45;;;;;;;17.36;100.00;100855.88;4989287;28;20042;-74
2023/07/16 03:23:44;;;;;;;14.07;5.40;;;;;;;17.28;100.00;100861.13;5007824;28;20991;-74
2023/07/16 03:26:10;;;;;;;15.77;6.15;;;;;;;17.29;100.00;100863.69;4998180;28;20038;-73
2023/07/16 03:28:36;;;;;;;16.13;5.45;;;;;;;17.25;100.00;100869.50;4991581;28;20050;-74
2023/07/16 03:31:05;;;;;;;16.05;5.90;;;;;;;17.30;100.00;100860.00;4996684;28;20070;-74
2023/07/16 03:33:34;;;;;;;15.55;4.93;;;;;;;17.14;100.00;100867.78;5008809;28;20393;-74
2023/07/16 03:35:59;;;;;;;9.38;5.03;;;;;;;17.21;100.00;100858.13;4992726;28;20259;-73
2023/07/16 03:38:25;;;;;;;17.48;5.85;;;;;;;17.13;100.00;100873.31;4997610;28;20095;-76
2023/07/16 03:40:51;;;;;;;9.50;4.80;;;;;;;17.32;100.00;100870.66;5010610;28;20897;-74
2023/07/16 03:43:17;;;;;;;17.58;5.47;;;;;;;17.23;100.00;100868.78;4997551;28;20081;-74
2023/07/16 03:45:43;;;;;;;14.77;5.75;;;;;;;17.28;100.00;100866.53;5008225;28;20035;-76
2023/07/16 03:48:09;;;;;;;15.23;4.75;;;;;;;17.39;100.00;100869.09;4992679;28;20035;-74
2023/07/16 03:50:35;;;;;;;13.82;4.68;;;;;;;17.28;100.00;100886.25;4988448;28;20904;-73
2023/07/16 03:53:03;;;;;;;16.27;6.07;;;;;;;17.22;100.00;100885.94;4994761;28;20179;-74
2023/07/16 03:55:29;;;;;;;14.15;5.05;;;;;;;17.30;100.00;100881.56;4995066;28;20780;-74
2023/07/16 03:57:54;;;;;;;15.32;5.75;;;;;;;17.45;100.00;100873.91;5008429;28;20110;-74
2023/07/16 04:00:20;;;;;;;13.73;5.35;;;;;;;17.63;100.00;100875.91;4990925;28;20496;-74
2023/07/16 04:02:49;;;;;;;18.10;5.35;;;;;;;17.96;100.00;100877.31;4994867;28;20031;-74
2023/07/16 04:05:16;;;;;;;12.40;5.00;;;;;;;18.21;100.00;100868.59;4987854;28;20045;-74
2023/07/16 04:07:42;;;;;;;13.65;5.75;;;;;;;18.52;100.00;100879.16;4987004;28;20096;-74
2023/07/16 04:10:08;;;;;;;12.98;4.95;;;;;;;18.82;100.00;100878.09;4983827;28;20043;-74
2023/07/16 04:12:33;;;;;;;10.60;5.38;;;;;;;19.30;100.00;100880.50;4987708;28;20148;-73
2023/07/16 04:14:59;;;;;;;10.07;5.18;;;;;;;19.72;100.00;100871.81;4983300;28;20038;-73
2023/07/16 04:17:25;;;;;;;13.85;6.03;;;;;;;20.18;100.00;100872.50;4990101;28;20110;-73
2023/07/16 04:19:51;;;;;;;12.43;5.90;;;;;;;20.06;100.00;100876.50;4983893;28;20031;-74
2023/07/16 04:22:19;;;;;;;13.45;6.53;;;;;;;20.69;100.00;100887.09;4989658;28;20829;-74
2023/07/16 04:24:45;;;;;;;12.52;6.32;;;;;;;20.79;100.00;100879.69;4991138;28;20563;-75
2023/07/16 04:27:10;;;;;;;12.70;6.25;;;;;;;20.50;100.00;100881.91;4987420;28;20050;-75
2023/07/16 04:29:36;;;;;;;14.48;5.90;;;;;;;20.99;100.00;100882.13;4976940;28;20051;-74
2023/07/16 04:32:02;;;;;;;11.60;6.25;;;;;;;21.45;99.31;100892.44;4984862;28;20034;-73
2023/07/16 04:34:28;;;;;;;11.60;5.70;;;;;;;21.14;95.96;100877.78;4987820;28;20027;-74
2023/07/16 04:36:54;;;;;;;13.23;5.28;;;;;;;21.74;90.70;100880.28;4992134;28;20051;-74
2023/07/16 04:39:19;;;;;;;12.55;4.97;;;;;;;21.93;87.65;100895.38;4977797;28;20039;-73
2023/07/16 04:41:45;;;;;;;11.95;5.53;;;;;;;22.44;81.60;100886.03;4981412;28;20038;-73
2023/07/16 04:44:10;;;;;;;11.95;5.50;;;;;;;22.71;77.18;100892.06;4980074;28;20046;-74
2023/07/16 04:46:36;;;;;;;12.88;5.07;;;;;;;22.72;75.14;100896.47;4987123;28;20050;-74
2023/07/16 04:49:04;;;;;;;10.88;5.35;;;;;;;23.47;73.42;100904.97;4978889;28;20046;-73
2023/07/16 04:51:30;;;;;;;12.27;5.30;;;;;;;23.94;69.25;100901.25;4980929;28;20035;-74
2023/07/16 04:53:55;;;;;;;13.57;6.25;;;;;;;23.76;69.88;100906.19;4990189;28;20045;-73
2023/07/16 04:56:21;;;;;;;12.27;4.90;;;;;;;23.81;69.14;100905.63;4979154;28;20117;-73
2023/07/16 04:58:46;;;;;;;8.93;4.95;;;;;;;23.24;71.02;100913.13;4987304;28;20090;-74
2023/07/16 05:01:12;;;;;;;12.68;5.43;;;;;;;23.13;72.91;100913.50;4987115;28;20042;-74
2023/07/16 05:03:37;;;;;;;12.32;5.38;;;;;;;22.83;74.47;100906.09;4980440;28;20039;-75
2023/07/16 05:06:04;;;;;;;12.65;5.55;;;;;;;22.47;76.12;100910.13;4987506;28;20054;-74
2023/07/16 05:08:29;;;;;;;13.05;4.70;;;;;;;22.59;74.08;100913.34;4990430;28;20038;-73
2023/07/16 05:10:55;;;;;;;12.57;4.88;;;;;;;22.63;77.93;100916.53;4987717;28;20031;-74
2023/07/16 05:13:21;;;;;;;12.70;5.25;;;;;;;22.73;75.54;100917.19;4987042;28;20030;-74
2023/07/16 05:15:46;;;;;;;14.32;5.68;;;;;;;22.16;76.45;100930.88;4986029;28;20050;-74
2023/07/16 05:18:12;;;;;;;13.50;5.13;;;;;;;21.66;80.82;100942.69;4991303;28;20162;-73
2023/07/16 05:20:38;;;;;;;16.38;5.13;;;;;;;21.37;80.13;100935.84;4987391;28;20073;-73
2023/07/16 05:23:03;;;;;;;17.52;6.03;;;;;;;21.17;81.76;100940.66;4979719;28;20038;-74
2023/07/16 05:25:29;;;;;;;13.45;4.95;;;;;;;21.41;80.59;100941.78;4979921;28;20129;-74
2023/07/16 05:27:55;;;;;;;13.63;5.45;;;;;;;21.72;80.31;100944.72;4988708;28;20042;-74
2023/07/16 05:30:21;;;;;;;16.98;5.75;;;;;;;21.23;83.29;100951.84;4983717;28;20042;-73
2023/07/16 05:32:46;;;;;;;12.48;5.72;;;;;;;21.58;79.54;100942.66;4979506;28;20868;-74
2023/07/16 05:35:12;;;;;;;14.73;5.65;;;;;;;22.02;77.51;100950.53;4956980;28;20054;-74
2023/07/16 05:37:37;;;;;;;12.23;5.78;;;;;;;21.20;79.05;100953.06;4974564;28;20097;-74
2023/07/16 05:40:04;;;;;;;16.08;5.65;;;;;;;21.47;78.05;100954.69;4979624;28;20035;-75
2023/07/16 05:42:29;;;;;;;13.10;5.65;;;;;;;22.42;75.08;100942.41;4984798;28;20105;-75
2023/07/16 05:44:55;;;;;;;11.73;5.72;;;;;;;22.04;74.24;100952.09;4988060;28;20053;-75
2023/07/16 05:47:21;;;;;;;11.27;5.78;;;;;;;22.41;71.45;100950.72;4986882;28;20043;-74
2023/07/16 05:49:47;;;;;;;13.88;6.03;;;;;;;22.15;72.32;100945.50;4988982;28;20188;-76
2023/07/16 05:52:12;;;;;;;15.73;5.45;;;;;;;22.79;69.95;100953.69;4969394;28;20117;-75
2023/07/16 05:54:38;;;;;;;12.50;5.60;;;;;;;22.64;67.93;100959.88;4976765;28;20438;-75
2023/07/16 05:57:04;;;;;;;14.88;6.05;;;;;;;22.19;68.43;100957.72;4989573;28;20261;-75
2023/07/16 05:59:30;;;;;;;11.43;6.40;;;;;;;22.66;68.71;100959.69;4985851;28;20535;-74
2023/07/16 06:01:57;;;;;;;14.05;5.63;;;;;;;22.51;71.36;100965.00;4982622;28;20088;-76
2023/07/16 06:04:23;;;;;;;15.43;6.65;;;;;;;22.11;72.74;100971.28;4997266;28;20046;-74
2023/07/16 06:06:49;;;;;;;16.50;5.88;;;;;;;22.90;68.90;100966.97;4979920;28;20141;-76
2023/07/16 06:09:14;;;;;;;12.82;5.95;;;;;;;23.02;67.54;100968.28;4981536;28;20039;-73
2023/07/16 06:11:40;;;;;;;15.95;6.00;;;;;;;23.00;67.89;100959.47;4982920;28;20045;-74
2023/07/16 06:14:06;;;;;;;17.92;5.93;;;;;;;22.37;69.18;100966.53;4995713;28;20031;-74
2023/07/16 06:16:32;;;;;;;14.77;6.18;;;;;;;22.32;70.17;100968.91;4982266;28;20034;-75
2023/07/16 06:18:57;;;;;;;11.68;5.82;;;;;;;22.54;68.13;100963.78;4981613;28;20034;-76
2023/07/16 06:21:23;;;;;;;12.13;6.20;;;;;;;22.07;68.59;100962.59;4985864;28;20030;-75
2023/07/16 06:23:48;;;;;;;12.88;6.07;;;;;;;22.56;68.49;100972.63;4987671;28;20575;-77
2023/07/16 06:26:14;;;;;;;13.25;5.72;;;;;;;23.37;66.51;100971.56;4996405;28;20049;-75
2023/07/16 06:28:39;;;;;;;12.55;6.38;;;;;;;23.23;67.64;100968.53;4984688;28;20065;-73
2023/07/16 06:31:05;;;;;;;12.88;6.00;;;;;;;23.27;64.69;100975.34;4988373;28;20030;-75
2023/07/16 06:33:30;;;;;;;12.32;6.45;;;;;;;23.20;64.43;100973.50;4985689;28;20802;-74
2023/07/16 06:35:56;;;;;;;14.68;6.53;;;;;;;22.94;65.47;100973.75;4986222;28;20500;-74
2023/07/16 06:38:21;;;;;;;9.48;6.05;;;;;;;23.44;64.47;100973.38;4981234;28;20034;-74
2023/07/16 06:40:48;;;;;;;13.20;6.35;;;;;;;22.66;65.50;100985.00;4980073;28;20039;-73
2023/07/16 06:43:14;;;;;;;15.75;6.60;;;;;;;22.59;66.23;100989.44;4984688;28;20045;-72
2023/07/16 06:45:40;;;;;;;14.98;6.90;;;;;;;22.82;65.64;100986.84;4972171;28;20051;-73
2023/07/16 06:48:06;;;;;;;11.95;6.50;;;;;;;22.97;65.71;101003.31;4978425;28;20086;-74
2023/07/16 06:50:32;;;;;;;17.88;6.57;;;;;;;23.45;65.41;100988.69;4986722;28;20097;-74
2023/07/16 06:52:57;;;;;;;12.00;6.53;;;;;;;23.31;64.45;100989.44;4983384;28;20038;-73
2023/07/16 06:55:23;;;;;;;11.10;6.13;;;;;;;23.60;64.18;100994.25;4983073;28;28372;-73
2023/07/16 06:57:48;;;;;;;14.45;6.85;;;;;;;23.13;66.74;100991.53;4983236;28;20091;-74
2023/07/16 07:00:17;;;;;;;16.02;7.28;;;;;;;23.02;66.02;100994.66;4982832;28;20039;-74
2023/07/16 07:02:42;;;;;;;15.93;6.15;;;;;;;23.90;65.17;100997.16;4976756;28;20141;-75
2023/07/16 07:05:08;;;;;;;13.30;6.13;;;;;;;23.16;65.28;101005.66;4981856;28;20046;-75
2023/07/16 07:07:34;;;;;;;15.40;6.97;;;;;;;23.33;63.85;100997.41;4983335;28;20895;-73
2023/07/16 07:09:59;;;;;;;18.65;7.18;;;;;;;23.03;63.61;101008.06;4991075;28;20041;-72
2023/07/16 07:12:25;;;;;;;13.05;6.13;;;;;;;23.06;64.55;101001.44;4986160;28;20030;-75
2023/07/16 07:14:50;;;;;;;15.43;6.57;;;;;;;22.71;65.46;101003.53;4984617;28;20698;-74
2023/07/16 07:17:16;;;;;;;14.43;6.82;;;;;;;23.02;65.31;101003.66;4981442;28;20488;-73
2023/07/16 07:19:43;;;;;;;19.25;7.50;;;;;;;23.00;64.72;101005.72;4982492;28;20816;-74
2023/07/16 07:22:08;;;;;;;16.05;7.13;;;;;;;23.02;65.71;101003.66;4998559;28;20559;-76
2023/07/16 07:24:34;;;;;;;16.80;8.23;;;;;;;23.09;64.01;101011.97;4976759;28;20122;-73
2023/07/16 07:27:00;;;;;;;14.23;7.43;;;;;;;23.09;64.51;101012.81;4990821;28;20050;-72
2023/07/16 07:29:25;;;;;;;15.73;8.07;;;;;;;23.32;63.99;101018.34;4983905;28;20045;-74
2023/07/16 07:31:52;;;;;;;16.20;7.00;;;;;;;23.14;64.63;101013.13;4988036;28;20539;-73
2023/07/16 07:34:18;;;;;;;17.63;6.80;;;;;;;23.55;64.08;101017.59;4979589;28;20039;-75
2023/07/16 07:36:43;;;;;;;17.83;7.25;;;;;;;23.54;65.60;101016.72;4979816;28;20821;-75
2023/07/16 07:39:09;;;;;;;11.90;7.03;;;;;;;23.28;64.10;101017.00;4989023;28;21017;-73
2023/07/16 07:41:34;;;;;;;10.52;6.57;;;;;;;23.47;64.37;101022.03;4990029;28;21291;-74
2023/07/16 07:44:00;;;;;;;13.68;6.72;;;;;;;23.22;64.76;101034.03;4990103;28;21276;-73
2023/07/16 07:46:25;;;;;;;14.00;7.47;;;;;;;23.40;64.45;101029.22;4989787;28;20987;-74
2023/07/16 07:48:51;;;;;;;18.55;7.22;;;;;;;23.41;64.33;101032.78;4990155;28;20034;-73
2023/07/16 07:51:17;;;;;;;17.60;6.97;;;;;;;23.57;63.87;101035.44;4993659;28;20034;-74
2023/07/16 07:53:42;;;;;;;15.27;7.40;;;;;;;23.52;64.41;101033.22;4985901;28;20563;-74
2023/07/16 07:56:08;;;;;;;14.45;6.63;;;;;;;23.48;62.46;101037.31;4999450;28;20487;-74
2023/07/16 07:58:34;;;;;;;15.98;7.43;;;;;;;23.70;62.43;101024.84;5004733;28;20620;-75
2023/07/16 08:01:07;;;;;;;17.00;7.13;;;;;;;23.49;63.57;101028.16;4986506;28;20280;-75
2023/07/16 08:03:33;;;;;;;17.52;7.07;;;;;;;23.67;63.28;101035.25;4984137;28;20041;-74
2023/07/16 08:05:59;;;;;;;21.65;7.88;;;;;;;23.59;63.14;101032.50;4993307;28;20042;-74
2023/07/16 08:08:25;;;;;;;14.85;7.47;;;;;;;23.57;63.27;101049.03;4989616;28;20034;-73
2023/07/16 08:10:51;;;;;;;19.13;7.30;;;;;;;23.99;63.00;101036.91;4987384;28;20109;-74
2023/07/16 08:13:16;;;;;;;16.40;7.68;;;;;;;24.12;61.85;101039.06;4980966;28;20086;-74
2023/07/16 08:15:45;;;;;;;18.25;7.60;;;;;;;24.12;61.24;101039.91;4996065;28;20029;-74
2023/07/16 08:18:16;;;;;;;20.27;7.68;;;;;;;24.39;61.51;101049.44;4989255;28;20129;-72
2023/07/16 08:20:42;;;;;;;18.88;7.45;;;;;;;24.31;62.35;101048.66;4982446;28;20105;-75
2023/07/16 08:23:08;;;;;;;12.65;7.03;;;;;;;24.08;59.86;101043.16;4995945;28;20044;-76
2023/07/16 08:25:33;;;;;;;24.45;8.13;;;;;;;24.00;60.22;101044.94;4989026;28;20861;-73
2023/07/16 08:27:59;;;;;;;16.45;7.75;;;;;;;24.16;60.80;101059.47;4998917;28;20764;-74
2023/07/16 08:30:25;;;;;;;14.88;6.72;;;;;;;23.96;60.56;101057.22;4996568;28;20047;-74
2023/07/16 08:32:50;;;;;;;16.65;7.38;;;;;;;24.11;60.18;101061.91;5016556;28;20043;-74
2023/07/16 08:35:16;;;;;;;13.05;7.32;;;;;;;24.29;60.30;101065.16;4999540;28;20042;-74
2023/07/16 08:37:45;;;;;;;12.80;6.95;;;;;;;23.85;60.05;101054.06;5006171;28;20039;-73
2023/07/16 08:40:12;;;;;;;16.98;6.70;;;;;;;24.10;60.65;101061.06;5007391;28;20062;-73
2023/07/16 08:42:44;;;;;;;16.63;7.88;;;;;;;23.96;60.08;101064.53;4999058;28;20082;-73
2023/07/16 08:45:11;;;;;;;14.82;7.40;;;;;;;24.22;61.42;101067.78;5001241;28;20038;-74
2023/07/16 08:47:37;;;;;;;12.93;7.50;;;;;;;24.58;61.06;101069.06;5008142;28;20079;-73
2023/07/16 08:50:03;;;;;;;14.82;7.18;;;;;;;25.14;59.37;101070.44;4992744;28;20114;-74
2023/07/16 08:52:29;;;;;;;13.52;6.43;;;;;;;25.30;58.79;101072.13;5008994;28;20302;-73
2023/07/16 08:54:55;;;;;;;12.15;6.95;;;;;;;25.57;56.75;101082.41;5005954;28;20034;-74
2023/07/16 08:57:21;;;;;;;15.52;6.55;;;;;;;25.20;56.90;101077.91;5007867;28;20750;-72
2023/07/16 08:59:51;;;;;;;17.77;7.55;;;;;;;26.04;58.52;101075.66;5009387;28;20216;-71
2023/07/16 09:02:20;;;;;;;15.40;6.93;;;;;;;25.24;55.73;101078.34;5000516;28;20610;-72
2023/07/16 09:04:51;;;;;;;16.58;7.10;;;;;;;24.46;57.27;101072.22;5005811;28;20043;-73
2023/07/16 09:07:17;;;;;;;15.88;6.85;;;;;;;24.29;60.11;101087.81;5010382;28;20037;-73
2023/07/16 09:09:42;;;;;;;11.55;6.05;;;;;;;24.43;59.18;101072.59;5001468;28;20037;-74
2023/07/16 09:12:12;;;;;;;13.57;6.28;;;;;;;25.11;58.52;101091.81;5002575;28;20411;-74
2023/07/16 09:14:41;;;;;;;18.88;6.82;;;;;;;24.93;57.82;101089.38;5020582;28;20066;-72
2023/07/16 09:17:06;;;;;;;11.52;6.20;;;;;;;24.14;56.89;101083.31;5000262;28;20053;-74
2023/07/16 09:19:32;;;;;;;11.82;6.25;;;;;;;24.71;56.80;101088.41;5006849;28;20048;-72
2023/07/16 09:21:58;;;;;;;16.27;6.20;;;;;;;24.91;59.04;101075.09;4997070;28;20042;-73
2023/07/16 09:24:24;;;;;;;10.85;5.95;;;;;;;25.04;57.54;101089.78;4999236;28;20043;-73
2023/07/16 09:26:55;;;;;;;12.77;6.65;;;;;;;24.93;59.49;101089.38;4992710;28;20040;-73
2023/07/16 09:29:21;;;;;;;14.60;7.07;;;;;;;24.78;58.92;101090.19;4996530;28;20048;-73
2023/07/16 09:31:57;;;;;;;10.95;6.60;;;;;;;24.65;58.87;101091.84;4992965;28;20041;-74
2023/07/16 09:34:23;;;;;;;15.50;6.22;;;;;;;25.46;57.49;101080.16;4998852;28;20049;-73
2023/07/16 09:36:49;;;;;;;10.57;6.15;;;;;;;24.85;56.75;101079.41;4999993;28;20069;-73
2023/07/16 09:39:19;;;;;;;11.52;6.35;;;;;;;25.34;56.77;101091.72;4993113;28;20042;-74
2023/07/16 09:41:47;;;;;;;13.25;6.28;;;;;;;25.69;55.85;101096.41;4986134;28;20071;-75
2023/07/16 09:44:14;;;;;;;11.75;6.30;;;;;;;26.02;58.06;101096.88;4994916;28;20042;-73
2023/07/16 09:46:39;;;;;;;11.98;6.43;;;;;;;25.87;56.04;101101.53;4994729;28;20091;-72
2023/07/16 09:49:06;;;;;;;14.07;6.80;;;;;;;24.93;55.82;101103.03;4995585;28;20038;-74
2023/07/16 09:51:33;;;;;;;16.35;6.18;;;;;;;24.75;56.67;101106.94;4991400;28;20038;-74
2023/07/16 09:54:01;;;;;;;14.18;5.82;;;;;;;25.33;55.77;101104.53;4985192;28;20049;-74
2023/07/16 09:56:33;;;;;;;12.93;5.93;;;;;;;25.80;55.14;101106.03;4989502;28;20041;-74
2023/07/16 09:59:00;;;;;;;8.90;5.65;;;;;;;25.40;56.30;101099.16;4993407;28;20041;-73
2023/07/16 10:01:26;;;;;;;12.52;6.53;;;;;;;25.39;55.46;101111.97;4996375;28;20031;-75
2023/07/16 10:03:52;;;;;;;12.82;5.60;;;;;;;25.49;55.28;101111.69;4999001;28;20037;-74
2023/07/16 10:06:18;;;;;;;10.68;5.15;;;;;;;25.00;55.85;101121.22;4982602;28;20037;-73
2023/07/16 10:08:49;;;;;;;14.32;6.15;;;;;;;24.63;55.45;101123.91;4995263;28;20041;-75
2023/07/16 10:11:17;;;;;;;10.25;6.03;;;;;;;25.73;55.19;101113.28;4990233;28;20039;-74
2023/07/16 10:13:43;;;;;;;13.93;6.32;;;;;;;25.63;53.89;101119.03;4984733;28;20060;-75
2023/07/16 10:16:21;;;;;;;12.10;5.55;;;;;;;25.69;53.33;101115.53;4981228;28;20046;-74
2023/07/16 10:19:00;;;;;;;10.98;6.03;;;;;;;25.94;53.58;101132.50;4990845;28;20070;-74
2023/07/16 10:21:26;;;;;;;12.00;5.78;;;;;;;25.52;55.94;101130.44;4998960;28;20092;-73
2023/07/16 10:23:59;;;;;;;11.20;6.00;;;;;;;25.52;55.25;101135.91;4995634;28;20034;-73
2023/07/16 10:26:29;;;;;;;8.50;5.35;;;;;;;25.47;54.81;101132.88;4974587;28;20070;-73
2023/07/16 10:28:55;;;;;;;11.80;5.43;;;;;;;25.33;55.19;101134.56;4981279;28;20051;-73
2023/07/16 10:31:22;;;;;;;11.48;5.75;;;;;;;26.19;53.87;101137.63;4980245;28;20038;-73
2023/07/16 10:34:04;;;;;;;10.38;6.00;;;;;;;25.70;54.81;101140.97;4978131;28;20065;-73
2023/07/16 10:36:30;;;;;;;14.57;5.05;;;;;;;25.47;54.09;101139.19;4987250;28;20031;-74
2023/07/16 10:39:03;;;;;;;10.77;5.85;;;;;;;25.94;54.36;101150.78;4985907;28;20039;-73
2023/07/16 10:41:32;;;;;;;10.00;5.47;;;;;;;26.17;53.81;101147.94;4987401;28;20050;-74
2023/07/16 10:43:58;;;;;;;12.02;5.13;;;;;;;25.93;53.35;101144.47;4973283;28;20066;-73
2023/07/16 10:46:24;;;;;;;12.68;5.70;;;;;;;25.99;54.20;101153.78;4990072;28;21010;-73
2023/07/16 10:48:50;;;;;;;8.57;5.13;;;;;;;25.94;54.08;101159.00;4985209;28;20035;-73
2023/07/16 10:51:16;;;;;;;11.05;5.13;;;;;;;25.63;53.53;101170.09;4989200;28;20039;-73
2023/07/16 10:53:43;;;;;;;13.70;5.80;;;;;;;24.71;55.10;101176.53;4986193;28;20364;-72
2023/07/16 10:56:08;;;;;;;13.65;5.75;;;;;;;25.48;54.82;101164.63;4985742;28;20039;-73
2023/07/16 10:58:37;;;;;;;10.27;5.22;;;;;;;25.52;54.70;101169.53;4989726;28;20034;-73
2023/07/16 11:01:02;;;;;;;11.20;5.45;;;;;;;25.26;54.31;101171.84;4992718;28;20071;-73
2023/07/16 11:03:28;;;;;;;13.15;6.00;;;;;;;25.21;55.38;101171.56;4992975;28;20044;-73
2023/07/16 11:05:53;;;;;;;12.32;5.43;;;;;;;24.77;56.83;101170.34;4980725;28;20446;-72
2023/07/16 11:08:23;;;;;;;17.38;5.88;;;;;;;24.63;55.52;101164.81;4989390;28;20047;-73
2023/07/16 11:10:58;;;;;;;10.98;5.55;;;;;;;25.86;54.80;101159.09;4988626;28;20958;-73
2023/07/16 11:13:34;;;;;;;9.23;4.72;;;;;;;26.12;55.44;101159.44;4987609;28;20042;-72